sensor_id;sensor_type;location;lat;lon;timestamp;P1;durP1;ratioP1;P2;durP2;ratioP2
83224;SDS011;73111;41.982;21.418;2023-10-13T00:00:26;17.20;;;11.90;;
83224;SDS011;73111;41.982;21.418;2023-10-13T00:02:55;18.42;;;10.65;;
83224;SDS011;73111;41.982;21.418;2023-10-13T00:05:21;20.65;;;12.43;;
83224;SDS011;73111;41.982;21.418;2023-10-13T00:07:47;16.73;;;11.07;;
83224;SDS011;73111;41.982;21.418;2023-10-13T00:10:14;16.30;;;11.07;;
83224;SDS011;73111;41.982;21.418;2023-10-13T00:12:44;18.33;;;11.70;;
83224;SDS011;73111;41.982;21.418;2023-10-13T00:15:17;18.20;;;11.32;;
83224;SDS011;73111;41.982;21.418;2023-10-13T00:17:45;21.80;;;11.70;;
83224;SDS011;73111;41.982;21.418;2023-10-13T00:20:12;19.30;;;11.50;;
83224;SDS011;73111;41.982;21.418;2023-10-13T00:23:03;18.92;;;11.98;;
83224;SDS011;73111;41.982;21.418;2023-10-13T00:25:29;20.95;;;11.45;;
83224;SDS011;73111;41.982;21.418;2023-10-13T00:28:08;20.70;;;12.82;;
83224;SDS011;73111;41.982;21.418;2023-10-13T00:30:34;17.75;;;11.15;;
83224;SDS011;73111;41.982;21.418;2023-10-13T00:33:02;21.13;;;11.10;;
83224;SDS011;73111;41.982;21.418;2023-10-13T00:35:29;18.70;;;10.75;;
83224;SDS011;73111;41.982;21.418;2023-10-13T00:38:03;20.70;;;11.60;;
83224;SDS011;73111;41.982;21.418;2023-10-13T00:40:32;18.30;;;10.88;;
83224;SDS011;73111;41.982;21.418;2023-10-13T00:42:59;19.88;;;11.00;;
83224;SDS011;73111;41.982;21.418;2023-10-13T00:45:52;20.08;;;11.35;;
83224;SDS011;73111;41.982;21.418;2023-10-13T00:48:31;18.35;;;11.73;;
83224;SDS011;73111;41.982;21.418;2023-10-13T00:51:00;17.35;;;11.65;;
83224;SDS011;73111;41.982;21.418;2023-10-13T00:53:28;19.20;;;12.88;;
83224;SDS011;73111;41.982;21.418;2023-10-13T00:55:54;20.40;;;11.27;;
83224;SDS011;73111;41.982;21.418;2023-10-13T00:58:31;18.90;;;11.70;;
83224;SDS011;73111;41.982;21.418;2023-10-13T01:03:42;19.65;;;11.40;;
83224;SDS011;73111;41.982;21.418;2023-10-13T01:06:09;18.58;;;11.70;;
83224;SDS011;73111;41.982;21.418;2023-10-13T01:08:37;20.48;;;11.80;;
83224;SDS011;73111;41.982;21.418;2023-10-13T01:11:04;19.30;;;11.85;;
83224;SDS011;73111;41.982;21.418;2023-10-13T01:13:34;18.98;;;13.00;;
83224;SDS011;73111;41.982;21.418;2023-10-13T01:16:02;19.83;;;12.38;;
83224;SDS011;73111;41.982;21.418;2023-10-13T01:18:32;19.48;;;12.73;;
83224;SDS011;73111;41.982;21.418;2023-10-13T01:21:05;17.63;;;11.65;;
83224;SDS011;73111;41.982;21.418;2023-10-13T01:23:31;24.13;;;13.25;;
83224;SDS011;73111;41.982;21.418;2023-10-13T01:26:03;20.63;;;12.77;;
83224;SDS011;73111;41.982;21.418;2023-10-13T01:28:30;22.77;;;13.73;;
83224;SDS011;73111;41.982;21.418;2023-10-13T01:31:09;20.95;;;12.68;;
83224;SDS011;73111;41.982;21.418;2023-10-13T01:33:37;22.92;;;13.80;;
83224;SDS011;73111;41.982;21.418;2023-10-13T01:36:03;24.35;;;13.10;;
83224;SDS011;73111;41.982;21.418;2023-10-13T01:38:35;18.70;;;12.15;;
83224;SDS011;73111;41.982;21.418;2023-10-13T01:43:29;19.15;;;12.25;;
83224;SDS011;73111;41.982;21.418;2023-10-13T01:45:55;21.92;;;12.73;;
83224;SDS011;73111;41.982;21.418;2023-10-13T01:48:21;20.13;;;12.13;;
83224;SDS011;73111;41.982;21.418;2023-10-13T01:50:47;20.85;;;13.02;;
83224;SDS011;73111;41.982;21.418;2023-10-13T01:53:20;19.70;;;12.93;;
83224;SDS011;73111;41.982;21.418;2023-10-13T01:55:47;17.17;;;11.18;;
83224;SDS011;73111;41.982;21.418;2023-10-13T01:58:15;24.77;;;13.43;;
83224;SDS011;73111;41.982;21.418;2023-10-13T02:00:45;18.70;;;12.60;;
83224;SDS011;73111;41.982;21.418;2023-10-13T02:03:12;20.13;;;12.80;;
83224;SDS011;73111;41.982;21.418;2023-10-13T02:05:42;18.60;;;13.07;;
83224;SDS011;73111;41.982;21.418;2023-10-13T02:08:12;19.70;;;12.80;;
83224;SDS011;73111;41.982;21.418;2023-10-13T02:10:43;21.77;;;13.68;;
83224;SDS011;73111;41.982;21.418;2023-10-13T02:13:13;19.17;;;12.90;;
83224;SDS011;73111;41.982;21.418;2023-10-13T02:15:45;21.05;;;13.80;;
83224;SDS011;73111;41.982;21.418;2023-10-13T02:18:15;22.17;;;12.82;;
83224;SDS011;73111;41.982;21.418;2023-10-13T02:20:54;20.05;;;12.55;;
83224;SDS011;73111;41.982;21.418;2023-10-13T02:23:24;20.50;;;13.05;;
83224;SDS011;73111;41.982;21.418;2023-10-13T02:25:53;25.17;;;13.40;;
83224;SDS011;73111;41.982;21.418;2023-10-13T02:28:28;21.55;;;14.15;;
83224;SDS011;73111;41.982;21.418;2023-10-13T02:31:01;21.23;;;12.68;;
83224;SDS011;73111;41.982;21.418;2023-10-13T02:33:28;22.90;;;13.30;;
83224;SDS011;73111;41.982;21.418;2023-10-13T02:35:58;24.80;;;14.13;;
83224;SDS011;73111;41.982;21.418;2023-10-13T02:38:28;23.67;;;13.35;;
83224;SDS011;73111;41.982;21.418;2023-10-13T02:41:04;24.67;;;13.57;;
83224;SDS011;73111;41.982;21.418;2023-10-13T02:43:33;20.25;;;12.73;;
83224;SDS011;73111;41.982;21.418;2023-10-13T02:46:00;24.77;;;13.63;;
83224;SDS011;73111;41.982;21.418;2023-10-13T02:48:26;21.33;;;12.93;;
83224;SDS011;73111;41.982;21.418;2023-10-13T02:51:04;21.45;;;13.50;;
83224;SDS011;73111;41.982;21.418;2023-10-13T02:53:40;22.63;;;14.05;;
83224;SDS011;73111;41.982;21.418;2023-10-13T02:56:06;21.35;;;12.82;;
83224;SDS011;73111;41.982;21.418;2023-10-13T02:58:33;23.88;;;13.65;;
83224;SDS011;73111;41.982;21.418;2023-10-13T03:01:08;24.27;;;14.45;;
83224;SDS011;73111;41.982;21.418;2023-10-13T03:03:44;22.83;;;13.30;;
83224;SDS011;73111;41.982;21.418;2023-10-13T03:06:29;23.20;;;13.27;;
83224;SDS011;73111;41.982;21.418;2023-10-13T03:08:59;20.52;;;12.93;;
83224;SDS011;73111;41.982;21.418;2023-10-13T03:11:38;18.38;;;13.20;;
83224;SDS011;73111;41.982;21.418;2023-10-13T03:14:12;21.55;;;13.60;;
83224;SDS011;73111;41.982;21.418;2023-10-13T03:16:49;19.55;;;13.10;;
83224;SDS011;73111;41.982;21.418;2023-10-13T03:19:15;23.70;;;13.70;;
83224;SDS011;73111;41.982;21.418;2023-10-13T03:21:44;21.75;;;13.30;;
83224;SDS011;73111;41.982;21.418;2023-10-13T03:24:18;25.65;;;13.68;;
83224;SDS011;73111;41.982;21.418;2023-10-13T03:26:47;27.73;;;13.18;;
83224;SDS011;73111;41.982;21.418;2023-10-13T03:29:17;19.17;;;12.27;;
83224;SDS011;73111;41.982;21.418;2023-10-13T03:31:47;23.13;;;13.88;;
83224;SDS011;73111;41.982;21.418;2023-10-13T03:34:28;21.23;;;13.75;;
83224;SDS011;73111;41.982;21.418;2023-10-13T03:36:55;26.75;;;13.50;;
83224;SDS011;73111;41.982;21.418;2023-10-13T03:39:22;23.88;;;13.25;;
83224;SDS011;73111;41.982;21.418;2023-10-13T03:41:53;23.85;;;14.20;;
83224;SDS011;73111;41.982;21.418;2023-10-13T03:44:19;21.48;;;14.05;;
83224;SDS011;73111;41.982;21.418;2023-10-13T03:46:46;21.50;;;14.75;;
83224;SDS011;73111;41.982;21.418;2023-10-13T03:49:16;24.33;;;14.23;;
83224;SDS011;73111;41.982;21.418;2023-10-13T03:51:47;22.55;;;13.52;;
83224;SDS011;73111;41.982;21.418;2023-10-13T03:54:13;30.23;;;14.55;;
83224;SDS011;73111;41.982;21.418;2023-10-13T03:56:41;25.67;;;15.40;;
83224;SDS011;73111;41.982;21.418;2023-10-13T03:59:10;25.25;;;14.15;;
83224;SDS011;73111;41.982;21.418;2023-10-13T04:01:42;25.38;;;14.63;;
83224;SDS011;73111;41.982;21.418;2023-10-13T04:04:09;22.77;;;15.70;;
83224;SDS011;73111;41.982;21.418;2023-10-13T04:06:40;22.38;;;14.85;;
83224;SDS011;73111;41.982;21.418;2023-10-13T04:09:21;25.10;;;14.63;;
83224;SDS011;73111;41.982;21.418;2023-10-13T04:11:56;21.90;;;13.82;;
83224;SDS011;73111;41.982;21.418;2023-10-13T04:17:15;22.73;;;14.25;;
83224;SDS011;73111;41.982;21.418;2023-10-13T04:19:47;21.95;;;12.50;;
83224;SDS011;73111;41.982;21.418;2023-10-13T04:25:16;24.55;;;13.93;;
83224;SDS011;73111;41.982;21.418;2023-10-13T04:28:07;22.92;;;13.80;;
83224;SDS011;73111;41.982;21.418;2023-10-13T04:33:24;21.05;;;13.45;;
83224;SDS011;73111;41.982;21.418;2023-10-13T04:36:02;27.40;;;14.05;;
83224;SDS011;73111;41.982;21.418;2023-10-13T04:41:21;34.70;;;15.20;;
83224;SDS011;73111;41.982;21.418;2023-10-13T04:43:50;23.15;;;13.73;;
83224;SDS011;73111;41.982;21.418;2023-10-13T04:46:26;53.00;;;16.95;;
83224;SDS011;73111;41.982;21.418;2023-10-13T04:49:10;25.38;;;13.25;;
83224;SDS011;73111;41.982;21.418;2023-10-13T04:51:53;22.85;;;14.07;;
83224;SDS011;73111;41.982;21.418;2023-10-13T04:54:29;27.30;;;14.35;;
83224;SDS011;73111;41.982;21.418;2023-10-13T04:57:13;25.23;;;14.23;;
83224;SDS011;73111;41.982;21.418;2023-10-13T04:59:52;24.73;;;14.30;;
83224;SDS011;73111;41.982;21.418;2023-10-13T05:02:43;23.17;;;14.82;;
83224;SDS011;73111;41.982;21.418;2023-10-13T05:05:28;25.67;;;14.93;;
83224;SDS011;73111;41.982;21.418;2023-10-13T05:08:13;26.48;;;15.05;;
83224;SDS011;73111;41.982;21.418;2023-10-13T05:11:02;27.90;;;15.90;;
83224;SDS011;73111;41.982;21.418;2023-10-13T05:13:47;25.30;;;15.75;;
83224;SDS011;73111;41.982;21.418;2023-10-13T05:16:32;29.52;;;16.23;;
83224;SDS011;73111;41.982;21.418;2023-10-13T05:19:16;30.02;;;15.85;;
83224;SDS011;73111;41.982;21.418;2023-10-13T05:22:01;23.73;;;14.85;;
83224;SDS011;73111;41.982;21.418;2023-10-13T05:24:45;25.00;;;14.65;;
83224;SDS011;73111;41.982;21.418;2023-10-13T05:27:30;30.27;;;15.95;;
83224;SDS011;73111;41.982;21.418;2023-10-13T05:30:14;25.15;;;15.82;;
83224;SDS011;73111;41.982;21.418;2023-10-13T05:32:59;27.67;;;16.42;;
83224;SDS011;73111;41.982;21.418;2023-10-13T05:35:44;26.50;;;15.60;;
83224;SDS011;73111;41.982;21.418;2023-10-13T05:38:28;26.73;;;14.63;;
83224;SDS011;73111;41.982;21.418;2023-10-13T05:41:13;27.38;;;16.05;;
83224;SDS011;73111;41.982;21.418;2023-10-13T05:43:58;29.70;;;16.55;;
83224;SDS011;73111;41.982;21.418;2023-10-13T05:46:42;31.67;;;17.90;;
83224;SDS011;73111;41.982;21.418;2023-10-13T05:49:15;27.60;;;17.52;;
83224;SDS011;73111;41.982;21.418;2023-10-13T05:51:41;32.55;;;18.15;;
83224;SDS011;73111;41.982;21.418;2023-10-13T05:54:07;30.55;;;17.58;;
83224;SDS011;73111;41.982;21.418;2023-10-13T05:56:53;30.88;;;17.35;;
83224;SDS011;73111;41.982;21.418;2023-10-13T05:59:38;29.92;;;18.50;;
83224;SDS011;73111;41.982;21.418;2023-10-13T06:02:23;32.72;;;18.58;;
83224;SDS011;73111;41.982;21.418;2023-10-13T06:05:09;32.05;;;17.98;;
83224;SDS011;73111;41.982;21.418;2023-10-13T06:07:54;30.15;;;18.90;;
83224;SDS011;73111;41.982;21.418;2023-10-13T06:10:39;33.42;;;18.50;;
83224;SDS011;73111;41.982;21.418;2023-10-13T06:13:24;28.83;;;19.20;;
83224;SDS011;73111;41.982;21.418;2023-10-13T06:16:12;35.83;;;17.40;;
83224;SDS011;73111;41.982;21.418;2023-10-13T06:18:58;34.38;;;19.77;;
83224;SDS011;73111;41.982;21.418;2023-10-13T06:21:43;34.60;;;18.42;;
83224;SDS011;73111;41.982;21.418;2023-10-13T06:24:27;36.45;;;18.35;;
83224;SDS011;73111;41.982;21.418;2023-10-13T06:27:12;35.35;;;19.58;;
83224;SDS011;73111;41.982;21.418;2023-10-13T06:29:57;35.85;;;19.27;;
83224;SDS011;73111;41.982;21.418;2023-10-13T06:32:23;39.67;;;20.13;;
83224;SDS011;73111;41.982;21.418;2023-10-13T06:34:52;45.22;;;22.02;;
83224;SDS011;73111;41.982;21.418;2023-10-13T06:37:23;39.22;;;19.98;;
83224;SDS011;73111;41.982;21.418;2023-10-13T06:39:59;41.97;;;22.67;;
83224;SDS011;73111;41.982;21.418;2023-10-13T06:42:46;45.17;;;22.50;;
83224;SDS011;73111;41.982;21.418;2023-10-13T06:45:12;44.92;;;23.05;;
83224;SDS011;73111;41.982;21.418;2023-10-13T06:47:41;43.70;;;22.83;;
83224;SDS011;73111;41.982;21.418;2023-10-13T06:50:17;38.85;;;20.83;;
83224;SDS011;73111;41.982;21.418;2023-10-13T06:52:49;33.63;;;20.67;;
83224;SDS011;73111;41.982;21.418;2023-10-13T06:55:16;44.47;;;22.67;;
83224;SDS011;73111;41.982;21.418;2023-10-13T06:57:45;40.10;;;21.23;;
83224;SDS011;73111;41.982;21.418;2023-10-13T07:00:11;39.45;;;21.65;;
83224;SDS011;73111;41.982;21.418;2023-10-13T07:02:45;46.83;;;24.15;;
83224;SDS011;73111;41.982;21.418;2023-10-13T07:05:17;41.42;;;23.20;;
83224;SDS011;73111;41.982;21.418;2023-10-13T07:07:44;39.97;;;23.83;;
83224;SDS011;73111;41.982;21.418;2023-10-13T07:10:10;40.90;;;21.58;;
83224;SDS011;73111;41.982;21.418;2023-10-13T07:12:40;41.58;;;22.50;;
83224;SDS011;73111;41.982;21.418;2023-10-13T07:15:08;44.42;;;22.10;;
83224;SDS011;73111;41.982;21.418;2023-10-13T07:17:37;40.13;;;24.88;;
83224;SDS011;73111;41.982;21.418;2023-10-13T07:20:10;40.17;;;22.52;;
83224;SDS011;73111;41.982;21.418;2023-10-13T07:22:43;46.72;;;23.42;;
83224;SDS011;73111;41.982;21.418;2023-10-13T07:25:51;45.38;;;21.80;;
83224;SDS011;73111;41.982;21.418;2023-10-13T07:28:19;35.92;;;22.33;;
83224;SDS011;73111;41.982;21.418;2023-10-13T07:30:45;43.28;;;21.90;;
83224;SDS011;73111;41.982;21.418;2023-10-13T07:33:34;48.30;;;23.13;;
83224;SDS011;73111;41.982;21.418;2023-10-13T07:36:00;37.30;;;20.88;;
83224;SDS011;73111;41.982;21.418;2023-10-13T07:38:35;39.17;;;21.88;;
83224;SDS011;73111;41.982;21.418;2023-10-13T07:41:03;40.88;;;24.38;;
83224;SDS011;73111;41.982;21.418;2023-10-13T07:43:38;40.25;;;23.77;;
83224;SDS011;73111;41.982;21.418;2023-10-13T07:46:04;50.20;;;23.65;;
83224;SDS011;73111;41.982;21.418;2023-10-13T07:48:37;37.60;;;22.73;;
83224;SDS011;73111;41.982;21.418;2023-10-13T07:53:40;48.05;;;23.65;;
83224;SDS011;73111;41.982;21.418;2023-10-13T07:56:09;47.53;;;24.77;;
83224;SDS011;73111;41.982;21.418;2023-10-13T07:58:38;49.67;;;25.33;;
83224;SDS011;73111;41.982;21.418;2023-10-13T08:01:23;48.13;;;24.98;;
83224;SDS011;73111;41.982;21.418;2023-10-13T08:03:50;44.85;;;25.10;;
83224;SDS011;73111;41.982;21.418;2023-10-13T08:06:29;46.60;;;24.95;;
83224;SDS011;73111;41.982;21.418;2023-10-13T08:08:56;40.97;;;24.63;;
83224;SDS011;73111;41.982;21.418;2023-10-13T08:11:54;46.47;;;23.25;;
83224;SDS011;73111;41.982;21.418;2023-10-13T08:14:20;50.33;;;25.38;;
83224;SDS011;73111;41.982;21.418;2023-10-13T08:16:54;50.05;;;24.35;;
83224;SDS011;73111;41.982;21.418;2023-10-13T08:19:25;44.13;;;21.55;;
83224;SDS011;73111;41.982;21.418;2023-10-13T08:22:05;48.63;;;24.00;;
83224;SDS011;73111;41.982;21.418;2023-10-13T08:24:46;57.20;;;25.48;;
83224;SDS011;73111;41.982;21.418;2023-10-13T08:27:13;35.47;;;22.30;;
83224;SDS011;73111;41.982;21.418;2023-10-13T08:29:43;38.22;;;21.95;;
83224;SDS011;73111;41.982;21.418;2023-10-13T08:32:25;37.42;;;20.33;;
83224;SDS011;73111;41.982;21.418;2023-10-13T08:37:21;39.45;;;24.10;;
83224;SDS011;73111;41.982;21.418;2023-10-13T08:39:53;49.78;;;24.10;;
83224;SDS011;73111;41.982;21.418;2023-10-13T08:42:25;36.97;;;24.08;;
83224;SDS011;73111;41.982;21.418;2023-10-13T08:45:09;44.35;;;22.98;;
83224;SDS011;73111;41.982;21.418;2023-10-13T08:50:19;36.28;;;23.58;;
83224;SDS011;73111;41.982;21.418;2023-10-13T08:53:05;38.00;;;22.85;;
83224;SDS011;73111;41.982;21.418;2023-10-13T08:55:58;42.97;;;26.05;;
83224;SDS011;73111;41.982;21.418;2023-10-13T08:58:34;39.90;;;26.17;;
83224;SDS011;73111;41.982;21.418;2023-10-13T09:01:28;43.78;;;23.90;;
83224;SDS011;73111;41.982;21.418;2023-10-13T09:04:17;44.35;;;26.40;;
83224;SDS011;73111;41.982;21.418;2023-10-13T09:09:15;42.95;;;25.83;;
83224;SDS011;73111;41.982;21.418;2023-10-13T09:12:06;53.08;;;23.80;;
83224;SDS011;73111;41.982;21.418;2023-10-13T09:14:36;39.88;;;23.33;;
83224;SDS011;73111;41.982;21.418;2023-10-13T09:17:07;39.90;;;21.73;;
83224;SDS011;73111;41.982;21.418;2023-10-13T09:20:11;42.15;;;23.95;;
83224;SDS011;73111;41.982;21.418;2023-10-13T09:22:48;36.35;;;21.75;;
83224;SDS011;73111;41.982;21.418;2023-10-13T09:25:36;41.17;;;23.25;;
83224;SDS011;73111;41.982;21.418;2023-10-13T09:28:12;42.05;;;24.85;;
83224;SDS011;73111;41.982;21.418;2023-10-13T09:30:46;37.75;;;22.77;;
83224;SDS011;73111;41.982;21.418;2023-10-13T09:33:13;41.15;;;21.17;;
83224;SDS011;73111;41.982;21.418;2023-10-13T09:35:46;39.67;;;23.38;;
83224;SDS011;73111;41.982;21.418;2023-10-13T09:38:15;34.38;;;23.05;;
83224;SDS011;73111;41.982;21.418;2023-10-13T09:40:42;34.80;;;22.60;;
83224;SDS011;73111;41.982;21.418;2023-10-13T09:43:15;42.13;;;23.80;;
83224;SDS011;73111;41.982;21.418;2023-10-13T09:45:43;39.28;;;20.90;;
83224;SDS011;73111;41.982;21.418;2023-10-13T09:48:39;35.55;;;21.73;;
83224;SDS011;73111;41.982;21.418;2023-10-13T09:51:18;33.85;;;20.25;;
83224;SDS011;73111;41.982;21.418;2023-10-13T09:56:40;32.53;;;17.48;;
83224;SDS011;73111;41.982;21.418;2023-10-13T09:59:18;35.75;;;22.60;;
83224;SDS011;73111;41.982;21.418;2023-10-13T10:01:45;32.20;;;21.25;;
83224;SDS011;73111;41.982;21.418;2023-10-13T10:04:22;27.55;;;19.30;;
83224;SDS011;73111;41.982;21.418;2023-10-13T10:06:52;35.20;;;21.50;;
83224;SDS011;73111;41.982;21.418;2023-10-13T10:09:18;31.58;;;16.38;;
83224;SDS011;73111;41.982;21.418;2023-10-13T10:17:10;25.42;;;16.30;;
83224;SDS011;73111;41.982;21.418;2023-10-13T10:22:40;26.02;;;15.00;;
83224;SDS011;73111;41.982;21.418;2023-10-13T10:25:12;26.02;;;15.65;;
83224;SDS011;73111;41.982;21.418;2023-10-13T10:27:59;28.98;;;16.35;;
83224;SDS011;73111;41.982;21.418;2023-10-13T10:30:28;22.50;;;13.63;;
83224;SDS011;73111;41.982;21.418;2023-10-13T10:32:55;21.83;;;13.52;;
83224;SDS011;73111;41.982;21.418;2023-10-13T10:35:24;22.00;;;13.55;;
83224;SDS011;73111;41.982;21.418;2023-10-13T10:38:07;25.65;;;13.77;;
83224;SDS011;73111;41.982;21.418;2023-10-13T10:40:48;20.85;;;13.80;;
83224;SDS011;73111;41.982;21.418;2023-10-13T10:43:17;21.67;;;14.23;;
83224;SDS011;73111;41.982;21.418;2023-10-13T10:45:50;22.30;;;13.50;;
83224;SDS011;73111;41.982;21.418;2023-10-13T10:48:17;22.55;;;13.57;;
83224;SDS011;73111;41.982;21.418;2023-10-13T10:50:53;20.30;;;13.18;;
83224;SDS011;73111;41.982;21.418;2023-10-13T10:53:22;22.25;;;13.35;;
83224;SDS011;73111;41.982;21.418;2023-10-13T10:56:08;22.75;;;13.05;;
83224;SDS011;73111;41.982;21.418;2023-10-13T10:58:45;22.67;;;13.05;;
83224;SDS011;73111;41.982;21.418;2023-10-13T11:01:11;24.95;;;14.00;;
83224;SDS011;73111;41.982;21.418;2023-10-13T11:04:01;22.58;;;13.85;;
83224;SDS011;73111;41.982;21.418;2023-10-13T11:06:35;23.15;;;14.10;;
83224;SDS011;73111;41.982;21.418;2023-10-13T11:09:07;27.40;;;12.88;;
83224;SDS011;73111;41.982;21.418;2023-10-13T11:11:54;23.50;;;13.43;;
83224;SDS011;73111;41.982;21.418;2023-10-13T11:14:22;27.05;;;11.68;;
83224;SDS011;73111;41.982;21.418;2023-10-13T11:16:53;25.45;;;13.20;;
83224;SDS011;73111;41.982;21.418;2023-10-13T11:19:20;21.92;;;13.52;;
83224;SDS011;73111;41.982;21.418;2023-10-13T11:21:50;23.98;;;12.35;;
83224;SDS011;73111;41.982;21.418;2023-10-13T11:24:17;25.52;;;12.68;;
83224;SDS011;73111;41.982;21.418;2023-10-13T11:26:43;25.27;;;12.90;;
83224;SDS011;73111;41.982;21.418;2023-10-13T11:29:19;23.08;;;13.95;;
83224;SDS011;73111;41.982;21.418;2023-10-13T11:31:56;20.02;;;12.85;;
83224;SDS011;73111;41.982;21.418;2023-10-13T11:34:25;21.75;;;11.80;;
83224;SDS011;73111;41.982;21.418;2023-10-13T11:37:04;28.75;;;13.98;;
83224;SDS011;73111;41.982;21.418;2023-10-13T11:39:51;35.67;;;13.95;;
83224;SDS011;73111;41.982;21.418;2023-10-13T11:42:17;26.65;;;12.57;;
83224;SDS011;73111;41.982;21.418;2023-10-13T11:44:43;20.83;;;12.45;;
83224;SDS011;73111;41.982;21.418;2023-10-13T11:47:10;26.73;;;12.88;;
83224;SDS011;73111;41.982;21.418;2023-10-13T11:50:01;21.90;;;11.90;;
83224;SDS011;73111;41.982;21.418;2023-10-13T11:52:30;24.15;;;12.25;;
83224;SDS011;73111;41.982;21.418;2023-10-13T11:54:56;23.67;;;12.25;;
83224;SDS011;73111;41.982;21.418;2023-10-13T11:57:22;23.33;;;12.38;;
83224;SDS011;73111;41.982;21.418;2023-10-13T11:59:49;25.85;;;10.95;;
83224;SDS011;73111;41.982;21.418;2023-10-13T12:02:20;24.75;;;12.85;;
83224;SDS011;73111;41.982;21.418;2023-10-13T12:04:52;29.05;;;11.13;;
83224;SDS011;73111;41.982;21.418;2023-10-13T12:07:20;17.92;;;11.45;;
83224;SDS011;73111;41.982;21.418;2023-10-13T12:10:05;24.05;;;10.63;;
83224;SDS011;73111;41.982;21.418;2023-10-13T12:12:40;17.98;;;8.90;;
83224;SDS011;73111;41.982;21.418;2023-10-13T12:15:08;27.00;;;10.80;;
83224;SDS011;73111;41.982;21.418;2023-10-13T12:17:35;26.10;;;11.00;;
83224;SDS011;73111;41.982;21.418;2023-10-13T12:20:07;22.52;;;9.38;;
83224;SDS011;73111;41.982;21.418;2023-10-13T12:22:42;27.02;;;10.35;;
83224;SDS011;73111;41.982;21.418;2023-10-13T12:25:16;21.77;;;10.27;;
83224;SDS011;73111;41.982;21.418;2023-10-13T12:27:57;31.90;;;10.18;;
83224;SDS011;73111;41.982;21.418;2023-10-13T12:30:37;28.30;;;10.32;;
83224;SDS011;73111;41.982;21.418;2023-10-13T12:33:19;30.27;;;9.05;;
83224;SDS011;73111;41.982;21.418;2023-10-13T12:36:05;20.52;;;9.77;;
83224;SDS011;73111;41.982;21.418;2023-10-13T12:38:34;21.35;;;9.52;;
83224;SDS011;73111;41.982;21.418;2023-10-13T12:41:23;22.00;;;8.68;;
83224;SDS011;73111;41.982;21.418;2023-10-13T12:44:08;25.58;;;8.38;;
83224;SDS011;73111;41.982;21.418;2023-10-13T12:46:53;15.80;;;8.35;;
83224;SDS011;73111;41.982;21.418;2023-10-13T12:49:37;23.27;;;9.35;;
83224;SDS011;73111;41.982;21.418;2023-10-13T12:52:24;17.52;;;8.18;;
83224;SDS011;73111;41.982;21.418;2023-10-13T12:54:59;17.02;;;7.45;;
83224;SDS011;73111;41.982;21.418;2023-10-13T12:57:31;15.43;;;8.50;;
83224;SDS011;73111;41.982;21.418;2023-10-13T12:59:58;14.50;;;7.60;;
83224;SDS011;73111;41.982;21.418;2023-10-13T13:02:24;14.77;;;7.90;;
83224;SDS011;73111;41.982;21.418;2023-10-13T13:04:54;15.27;;;8.40;;
83224;SDS011;73111;41.982;21.418;2023-10-13T13:07:31;20.70;;;8.52;;
83224;SDS011;73111;41.982;21.418;2023-10-13T13:10:08;20.65;;;8.80;;
83224;SDS011;73111;41.982;21.418;2023-10-13T13:12:36;17.15;;;8.57;;
83224;SDS011;73111;41.982;21.418;2023-10-13T13:15:02;14.15;;;7.00;;
83224;SDS011;73111;41.982;21.418;2023-10-13T13:17:33;20.45;;;7.57;;
83224;SDS011;73111;41.982;21.418;2023-10-13T13:19:59;15.57;;;8.00;;
83224;SDS011;73111;41.982;21.418;2023-10-13T13:22:25;16.90;;;7.60;;
83224;SDS011;73111;41.982;21.418;2023-10-13T13:24:52;18.02;;;7.72;;
83224;SDS011;73111;41.982;21.418;2023-10-13T13:27:18;11.18;;;7.35;;
83224;SDS011;73111;41.982;21.418;2023-10-13T13:29:47;18.38;;;8.35;;
83224;SDS011;73111;41.982;21.418;2023-10-13T13:32:13;16.35;;;6.95;;
83224;SDS011;73111;41.982;21.418;2023-10-13T13:34:47;11.93;;;6.93;;
83224;SDS011;73111;41.982;21.418;2023-10-13T13:37:23;13.15;;;6.60;;
83224;SDS011;73111;41.982;21.418;2023-10-13T13:39:52;16.08;;;7.13;;
83224;SDS011;73111;41.982;21.418;2023-10-13T13:42:19;11.95;;;6.18;;
83224;SDS011;73111;41.982;21.418;2023-10-13T13:44:45;13.48;;;7.20;;
83224;SDS011;73111;41.982;21.418;2023-10-13T13:47:14;12.60;;;6.40;;
83224;SDS011;73111;41.982;21.418;2023-10-13T13:49:42;12.65;;;6.90;;
83224;SDS011;73111;41.982;21.418;2023-10-13T13:52:16;15.68;;;5.70;;
83224;SDS011;73111;41.982;21.418;2023-10-13T13:54:58;13.65;;;6.35;;
83224;SDS011;73111;41.982;21.418;2023-10-13T13:57:28;14.00;;;5.93;;
83224;SDS011;73111;41.982;21.418;2023-10-13T13:59:55;11.70;;;5.40;;
83224;SDS011;73111;41.982;21.418;2023-10-13T14:02:23;11.30;;;5.60;;
83224;SDS011;73111;41.982;21.418;2023-10-13T14:04:49;10.95;;;5.38;;
83224;SDS011;73111;41.982;21.418;2023-10-13T14:07:18;14.35;;;5.93;;
83224;SDS011;73111;41.982;21.418;2023-10-13T14:09:45;17.83;;;5.85;;
83224;SDS011;73111;41.982;21.418;2023-10-13T14:12:16;15.13;;;6.13;;
83224;SDS011;73111;41.982;21.418;2023-10-13T14:14:55;13.30;;;4.97;;
83224;SDS011;73111;41.982;21.418;2023-10-13T14:17:21;10.70;;;5.03;;
83224;SDS011;73111;41.982;21.418;2023-10-13T14:20:00;9.57;;;5.28;;
83224;SDS011;73111;41.982;21.418;2023-10-13T14:22:34;11.75;;;5.30;;
83224;SDS011;73111;41.982;21.418;2023-10-13T14:25:02;14.52;;;5.07;;
83224;SDS011;73111;41.982;21.418;2023-10-13T14:27:34;13.10;;;4.97;;
83224;SDS011;73111;41.982;21.418;2023-10-13T14:30:01;12.38;;;4.80;;
83224;SDS011;73111;41.982;21.418;2023-10-13T14:32:27;10.68;;;5.25;;
83224;SDS011;73111;41.982;21.418;2023-10-13T14:34:53;9.38;;;4.30;;
83224;SDS011;73111;41.982;21.418;2023-10-13T14:37:21;9.35;;;4.70;;
83224;SDS011;73111;41.982;21.418;2023-10-13T14:39:57;10.23;;;5.10;;
83224;SDS011;73111;41.982;21.418;2023-10-13T14:42:26;9.32;;;4.18;;
83224;SDS011;73111;41.982;21.418;2023-10-13T14:44:53;7.38;;;3.83;;
83224;SDS011;73111;41.982;21.418;2023-10-13T14:47:23;10.18;;;4.43;;
83224;SDS011;73111;41.982;21.418;2023-10-13T14:49:52;9.43;;;4.18;;
83224;SDS011;73111;41.982;21.418;2023-10-13T14:52:20;8.50;;;4.72;;
83224;SDS011;73111;41.982;21.418;2023-10-13T14:54:46;10.75;;;3.85;;
83224;SDS011;73111;41.982;21.418;2023-10-13T14:57:13;7.65;;;4.38;;
83224;SDS011;73111;41.982;21.418;2023-10-13T14:59:39;9.98;;;4.25;;
83224;SDS011;73111;41.982;21.418;2023-10-13T15:02:06;9.77;;;4.25;;
83224;SDS011;73111;41.982;21.418;2023-10-13T15:04:32;8.85;;;4.43;;
83224;SDS011;73111;41.982;21.418;2023-10-13T15:07:01;11.32;;;4.22;;
83224;SDS011;73111;41.982;21.418;2023-10-13T15:09:28;10.02;;;4.30;;
83224;SDS011;73111;41.982;21.418;2023-10-13T15:11:54;16.60;;;4.88;;
83224;SDS011;73111;41.982;21.418;2023-10-13T15:14:20;11.15;;;4.68;;
83224;SDS011;73111;41.982;21.418;2023-10-13T15:16:48;10.02;;;3.70;;
83224;SDS011;73111;41.982;21.418;2023-10-13T15:19:14;9.13;;;3.72;;
83224;SDS011;73111;41.982;21.418;2023-10-13T15:21:41;9.18;;;4.50;;
83224;SDS011;73111;41.982;21.418;2023-10-13T15:24:12;9.70;;;5.35;;